createdAt,value
2019-05-15T00:00:24.919Z,5.72
2019-05-15T00:01:24.883Z,5.68
2019-05-15T00:02:24.874Z,5.76
2019-05-15T00:03:24.873Z,5.76
2019-05-15T00:04:24.863Z,5.72
2019-05-15T00:05:24.880Z,5.71
2019-05-15T00:06:24.835Z,5.66
2019-05-15T00:07:24.841Z,5.71
2019-05-15T00:08:24.815Z,5.87
2019-05-15T00:09:24.812Z,5.71
2019-05-15T00:10:24.815Z,5.75
2019-05-15T00:11:24.778Z,5.72
2019-05-15T00:12:24.764Z,5.71
2019-05-15T00:13:24.761Z,5.71
2019-05-15T00:14:24.750Z,5.72
2019-05-15T00:15:24.755Z,5.72
2019-05-15T00:16:24.730Z,5.73
2019-05-15T00:17:24.737Z,5.71
2019-05-15T00:18:24.698Z,5.64
2019-05-15T00:19:24.692Z,5.61
2019-05-15T00:20:24.748Z,5.59
2019-05-15T00:21:24.671Z,5.65
2019-05-15T00:22:24.672Z,5.65
2019-05-15T00:23:24.646Z,5.64
2019-05-15T00:24:24.638Z,5.64
2019-05-15T00:25:24.655Z,5.64
2019-05-15T00:26:24.622Z,5.57
2019-05-15T00:27:24.597Z,5.54
2019-05-15T00:28:24.598Z,5.44
2019-05-15T00:29:24.576Z,5.43
2019-05-15T00:30:24.574Z,5.46
2019-05-15T00:31:24.585Z,5.50
2019-05-15T00:32:24.557Z,5.46
2019-05-15T00:33:24.538Z,5.48
2019-05-15T00:34:24.533Z,5.51
2019-05-15T00:35:24.526Z,5.54
2019-05-15T00:36:24.517Z,5.41
2019-05-15T00:37:24.509Z,5.39
2019-05-15T00:38:24.480Z,5.41
2019-05-15T00:39:24.465Z,5.39
2019-05-15T00:40:24.473Z,5.38
2019-05-15T00:41:24.491Z,5.38
2019-05-15T00:42:24.445Z,5.39
2019-05-15T00:43:24.439Z,5.39
2019-05-15T00:44:24.414Z,5.41
2019-05-15T00:45:24.408Z,5.38
2019-05-15T00:46:24.422Z,5.36
2019-05-15T00:47:26.176Z,5.35
2019-05-15T00:48:24.393Z,5.38
2019-05-15T00:49:24.365Z,5.38
2019-05-15T00:50:24.351Z,5.41
2019-05-15T00:51:24.342Z,5.41
2019-05-15T00:52:24.339Z,5.41
2019-05-15T00:53:24.332Z,5.36
2019-05-15T00:54:24.313Z,5.33
2019-05-15T00:55:24.294Z,5.30
2019-05-15T00:56:24.279Z,5.30
2019-05-15T00:57:24.275Z,5.33
2019-05-15T00:58:24.275Z,5.25
2019-05-15T00:59:27.494Z,5.25
2019-05-15T01:00:25.265Z,5.30
2019-05-15T01:01:24.227Z,5.18
2019-05-15T01:02:24.216Z,5.12
2019-05-15T01:03:24.224Z,5.21
2019-05-15T01:04:24.209Z,5.18
2019-05-15T01:05:24.183Z,5.04
2019-05-15T01:06:24.180Z,5.11
2019-05-15T01:07:24.156Z,5.11
2019-05-15T01:08:24.179Z,4.97
2019-05-15T01:09:24.150Z,4.99
2019-05-15T01:10:24.140Z,4.97
2019-05-15T01:11:24.118Z,4.96
2019-05-15T01:12:24.108Z,5.04
2019-05-15T01:13:24.114Z,4.90
2019-05-15T01:14:24.130Z,5.02
2019-05-15T01:15:24.080Z,4.93
2019-05-15T01:16:24.059Z,4.94
2019-05-15T01:17:24.039Z,5.04
2019-05-15T01:18:24.034Z,5.00
2019-05-15T01:19:24.029Z,5.10
2019-05-15T01:20:24.263Z,5.07
2019-05-15T01:21:24.007Z,5.11
2019-05-15T01:22:23.988Z,5.05
2019-05-15T01:23:23.985Z,5.00
2019-05-15T01:24:23.975Z,5.00
2019-05-15T01:25:23.967Z,4.93
2019-05-15T01:26:23.976Z,4.92
2019-05-15T01:27:23.976Z,5.00
2019-05-15T01:28:23.922Z,4.94
2019-05-15T01:29:31.001Z,5.07
2019-05-15T01:30:24.929Z,5.00
2019-05-15T01:31:23.909Z,4.99
2019-05-15T01:32:23.885Z,4.94
2019-05-15T01:33:23.875Z,4.99
2019-05-15T01:34:23.869Z,4.78
2019-05-15T01:35:23.851Z,4.84
2019-05-15T01:36:23.857Z,4.89
2019-05-15T01:37:23.842Z,4.89
2019-05-15T01:38:23.820Z,4.94
2019-05-15T01:39:23.817Z,4.99
2019-05-15T01:40:23.788Z,5.02
2019-05-15T01:41:23.790Z,4.94
2019-05-15T01:42:23.774Z,4.93
2019-05-15T01:43:23.810Z,5.04
2019-05-15T01:44:23.765Z,5.00
2019-05-15T01:45:23.776Z,4.90
2019-05-15T01:46:23.724Z,4.93
2019-05-15T01:47:23.723Z,4.96
2019-05-15T01:48:23.710Z,4.92
2019-05-15T01:49:23.703Z,4.90
2019-05-15T01:50:23.696Z,4.86
2019-05-15T01:51:23.774Z,4.86
2019-05-15T01:52:23.665Z,4.90
2019-05-15T01:53:23.656Z,4.89
2019-05-15T01:54:23.644Z,4.86
2019-05-15T01:55:23.651Z,4.82
2019-05-15T01:56:23.636Z,4.86
2019-05-15T01:57:23.602Z,4.84
2019-05-15T01:58:23.597Z,4.89
2019-05-15T01:59:23.605Z,4.89
2019-05-15T02:00:23.608Z,4.90
2019-05-15T02:01:23.677Z,4.84
2019-05-15T02:02:23.605Z,4.82
2019-05-15T02:03:23.535Z,4.87
2019-05-15T02:04:23.558Z,4.89
2019-05-15T02:05:23.532Z,4.87
2019-05-15T02:06:23.528Z,4.87
2019-05-15T02:07:23.487Z,4.89
2019-05-15T02:08:23.481Z,4.77
2019-05-15T02:09:23.472Z,4.84
2019-05-15T02:10:23.455Z,4.78
2019-05-15T02:11:23.478Z,4.68
2019-05-15T02:12:23.437Z,4.71
2019-05-15T02:13:23.429Z,4.73
2019-05-15T02:14:23.435Z,4.66
2019-05-15T02:15:23.402Z,4.74
2019-05-15T02:16:23.553Z,4.70
2019-05-15T02:17:23.406Z,4.80
2019-05-15T02:18:23.369Z,4.77
2019-05-15T02:19:23.386Z,4.80
2019-05-15T02:20:23.351Z,4.71
2019-05-15T02:21:23.369Z,4.80
2019-05-15T02:22:23.340Z,4.77
2019-05-15T02:23:23.355Z,4.75
2019-05-15T02:24:23.349Z,4.70
2019-05-15T02:25:23.295Z,4.78
2019-05-15T02:26:23.284Z,4.77
2019-05-15T02:27:23.280Z,4.68
2019-05-15T02:28:23.277Z,4.66
2019-05-15T02:29:25.128Z,4.80
2019-05-15T02:30:28.918Z,4.84
2019-05-15T02:31:24.230Z,4.66
2019-05-15T02:32:23.220Z,4.73
2019-05-15T02:33:23.218Z,4.67
2019-05-15T02:34:23.214Z,4.68
2019-05-15T02:35:23.231Z,4.66
2019-05-15T02:36:23.197Z,4.56
2019-05-15T02:37:23.166Z,4.58
2019-05-15T02:38:23.155Z,4.53
2019-05-15T02:39:23.152Z,4.59
2019-05-15T02:40:23.131Z,4.59
2019-05-15T02:41:23.135Z,4.49
2019-05-15T02:42:23.118Z,4.48
2019-05-15T02:43:23.094Z,4.40
2019-05-15T02:44:23.097Z,4.44
2019-05-15T02:45:23.078Z,4.40
2019-05-15T02:46:23.157Z,4.32
2019-05-15T02:47:23.052Z,4.37
2019-05-15T02:48:23.044Z,4.26
2019-05-15T02:49:23.047Z,4.19
2019-05-15T02:50:23.036Z,4.26
2019-05-15T02:51:23.042Z,4.23
2019-05-15T02:52:23.018Z,4.13
2019-05-15T02:53:22.992Z,4.16
2019-05-15T02:54:22.999Z,4.24
2019-05-15T02:55:22.978Z,4.19
2019-05-15T02:56:22.975Z,4.20
2019-05-15T02:57:22.962Z,4.16
2019-05-15T02:58:22.941Z,4.16
2019-05-15T02:59:22.945Z,4.14
2019-05-15T03:00:37.813Z,4.13
2019-05-15T03:01:23.917Z,4.16
2019-05-15T03:02:22.897Z,3.96
2019-05-15T03:03:22.912Z,4.05
2019-05-15T03:04:22.894Z,4.01
2019-05-15T03:05:22.861Z,3.99
2019-05-15T03:06:22.850Z,3.94
2019-05-15T03:07:22.875Z,3.95
2019-05-15T03:08:22.854Z,3.96
2019-05-15T03:09:22.845Z,3.98
2019-05-15T03:10:22.803Z,3.95
2019-05-15T03:11:22.808Z,3.95
2019-05-15T03:12:22.781Z,3.99
2019-05-15T03:13:22.778Z,3.96
2019-05-15T03:14:22.776Z,3.96
2019-05-15T03:15:22.783Z,3.88
2019-05-15T03:16:23.073Z,3.86
2019-05-15T03:17:22.732Z,3.84
2019-05-15T03:18:22.720Z,3.91
2019-05-15T03:19:22.711Z,3.84
2019-05-15T03:20:22.720Z,3.87
2019-05-15T03:21:22.689Z,3.91
2019-05-15T03:22:22.696Z,3.95
2019-05-15T03:23:22.665Z,3.84
2019-05-15T03:24:22.663Z,3.94
2019-05-15T03:25:22.651Z,3.91
2019-05-15T03:26:22.649Z,3.94
2019-05-15T03:27:22.679Z,3.91
2019-05-15T03:28:22.623Z,3.94
2019-05-15T03:29:22.602Z,3.94
2019-05-15T03:30:22.598Z,3.95
2019-05-15T03:31:40.283Z,4.02
2019-05-15T03:32:34.383Z,3.98
2019-05-15T03:33:27.701Z,3.95
2019-05-15T03:34:30.999Z,3.94
2019-05-15T03:35:23.731Z,3.96
2019-05-15T03:36:24.050Z,3.95
2019-05-15T03:37:23.036Z,4.02
2019-05-15T03:38:22.547Z,4.01
2019-05-15T03:39:22.496Z,4.01
2019-05-15T03:40:22.489Z,4.08
2019-05-15T03:41:22.521Z,4.14
2019-05-15T03:42:22.465Z,4.17
2019-05-15T03:43:22.464Z,4.16
2019-05-15T03:44:22.474Z,4.26
2019-05-15T03:45:22.487Z,4.26
2019-05-15T03:46:22.426Z,4.32
2019-05-15T03:47:22.428Z,4.37
2019-05-15T03:48:22.399Z,4.38
2019-05-15T03:49:22.393Z,4.50
2019-05-15T03:50:22.382Z,4.49
2019-05-15T03:51:22.558Z,4.55
2019-05-15T03:52:22.382Z,4.50
2019-05-15T03:53:22.998Z,4.59
2019-05-15T03:54:22.332Z,4.63
2019-05-15T03:55:22.330Z,4.74
2019-05-15T03:56:22.357Z,4.75
2019-05-15T03:57:23.339Z,4.70
2019-05-15T03:58:22.291Z,4.71
2019-05-15T03:59:22.313Z,4.80
2019-05-15T04:00:22.275Z,4.80
2019-05-15T04:01:34.362Z,4.90
2019-05-15T04:02:23.269Z,4.86
2019-05-15T04:03:22.270Z,4.89
2019-05-15T04:04:22.249Z,4.87
2019-05-15T04:05:22.211Z,4.93
2019-05-15T04:06:22.214Z,5.00
2019-05-15T04:07:22.237Z,4.97
2019-05-15T04:08:22.226Z,5.10
2019-05-15T04:09:22.175Z,5.11
2019-05-15T04:10:22.166Z,5.21
2019-05-15T04:11:22.154Z,5.20
2019-05-15T04:12:22.149Z,5.25
2019-05-15T04:13:22.138Z,5.25
2019-05-15T04:14:22.130Z,5.21
2019-05-15T04:15:22.104Z,5.26
2019-05-15T04:16:22.092Z,5.25
2019-05-15T04:17:22.182Z,5.29
2019-05-15T04:18:22.082Z,5.35
2019-05-15T04:19:22.067Z,5.36
2019-05-15T04:20:22.078Z,5.48
2019-05-15T04:21:22.050Z,5.38
2019-05-15T04:22:22.034Z,5.48
2019-05-15T04:23:22.117Z,5.53
2019-05-15T04:24:22.006Z,5.54
2019-05-15T04:25:21.993Z,5.43
2019-05-15T04:26:21.998Z,5.47
2019-05-15T04:27:21.992Z,5.57
2019-05-15T04:28:22.014Z,5.54
2019-05-15T04:29:21.960Z,5.48
2019-05-15T04:30:21.935Z,5.41
2019-05-15T04:31:21.990Z,5.41
2019-05-15T04:32:21.920Z,5.46
2019-05-15T04:33:21.906Z,5.50
2019-05-15T04:34:21.908Z,5.61
2019-05-15T04:35:22.021Z,5.68
2019-05-15T04:36:21.870Z,5.69
2019-05-15T04:37:21.885Z,5.75
2019-05-15T04:38:21.876Z,5.71
2019-05-15T04:39:21.844Z,5.83
2019-05-15T04:40:21.837Z,5.89
2019-05-15T04:41:21.836Z,5.90
2019-05-15T04:42:21.802Z,5.91
2019-05-15T04:43:21.811Z,5.90
2019-05-15T04:44:21.788Z,5.97
2019-05-15T04:45:21.770Z,5.93
2019-05-15T04:46:21.884Z,6.02
2019-05-15T04:47:21.761Z,6.12
2019-05-15T04:48:21.771Z,6.19
2019-05-15T04:49:21.734Z,6.04
2019-05-15T04:50:21.771Z,6.16
2019-05-15T04:51:21.716Z,6.19
2019-05-15T04:52:21.753Z,6.19
2019-05-15T04:53:21.688Z,6.24
2019-05-15T04:54:21.683Z,6.30
2019-05-15T04:55:21.668Z,6.31
2019-05-15T04:56:39.670Z,6.33
2019-05-15T04:57:21.664Z,6.36
2019-05-15T04:58:21.660Z,6.44
2019-05-15T04:59:21.621Z,6.42
2019-05-15T05:00:21.602Z,6.45
2019-05-15T05:01:21.616Z,6.60
2019-05-15T05:02:26.519Z,6.69
2019-05-15T05:03:22.599Z,6.72
2019-05-15T05:04:21.567Z,6.70
2019-05-15T05:05:21.616Z,6.78
2019-05-15T05:06:21.540Z,6.72
2019-05-15T05:07:21.583Z,6.84
2019-05-15T05:08:21.627Z,6.92
2019-05-15T05:09:22.691Z,6.85
2019-05-15T05:10:21.503Z,6.87
2019-05-15T05:11:23.906Z,6.75
2019-05-15T05:12:21.470Z,6.82
2019-05-15T05:13:21.477Z,6.85
2019-05-15T05:14:21.468Z,6.81
2019-05-15T05:15:21.449Z,6.92
2019-05-15T05:16:21.433Z,7.02
2019-05-15T05:17:21.415Z,7.05
2019-05-15T05:18:21.422Z,7.20
2019-05-15T05:19:21.854Z,7.35
2019-05-15T05:20:21.414Z,7.36
2019-05-15T05:21:21.396Z,7.33
2019-05-15T05:22:21.380Z,7.39
2019-05-15T05:23:21.361Z,7.32
2019-05-15T05:24:21.341Z,7.51
2019-05-15T05:25:21.344Z,7.43
2019-05-15T05:26:21.341Z,7.40
2019-05-15T05:27:21.329Z,7.53
2019-05-15T05:28:21.293Z,7.43
2019-05-15T05:29:21.308Z,7.47
2019-05-15T05:30:21.299Z,7.54
2019-05-15T05:31:21.281Z,7.53
2019-05-15T05:32:31.242Z,7.57
2019-05-15T05:33:22.239Z,7.63
2019-05-15T05:34:21.237Z,7.72
2019-05-15T05:35:21.265Z,7.82
2019-05-15T05:36:21.217Z,7.93
2019-05-15T05:37:21.231Z,8.00
2019-05-15T05:38:21.190Z,8.12
2019-05-15T05:39:21.197Z,8.15
2019-05-15T05:40:21.173Z,8.16
2019-05-15T05:41:21.296Z,8.19
2019-05-15T05:42:21.164Z,8.34
2019-05-15T05:43:21.146Z,8.27
2019-05-15T05:44:21.120Z,8.42
2019-05-15T05:45:21.112Z,8.52
2019-05-15T05:46:21.103Z,8.61
2019-05-15T05:47:21.132Z,8.60
2019-05-15T05:48:21.074Z,8.71
2019-05-15T05:49:21.078Z,8.84
2019-05-15T05:50:21.058Z,8.89
2019-05-15T05:51:21.051Z,8.92
2019-05-15T05:52:21.029Z,9.02
2019-05-15T05:53:21.575Z,9.14
2019-05-15T05:54:21.019Z,9.02
2019-05-15T05:55:21.016Z,9.14
2019-05-15T05:56:21.000Z,9.22
2019-05-15T05:57:20.984Z,9.16
2019-05-15T05:58:20.989Z,9.22
2019-05-15T05:59:20.952Z,9.22
2019-05-15T06:00:20.956Z,9.23
2019-05-15T06:01:20.963Z,9.36
2019-05-15T06:02:20.927Z,9.43
2019-05-15T06:03:20.932Z,9.50
2019-05-15T06:04:20.928Z,9.55
2019-05-15T06:05:20.916Z,9.62
2019-05-15T06:06:20.889Z,9.74
2019-05-15T06:07:20.869Z,9.82
2019-05-15T06:08:20.870Z,9.91
2019-05-15T06:09:20.874Z,10.01
2019-05-15T06:10:20.856Z,10.10
2019-05-15T06:11:20.853Z,10.13
2019-05-15T06:12:20.826Z,10.13
2019-05-15T06:13:20.798Z,10.19
2019-05-15T06:14:20.804Z,10.20
2019-05-15T06:15:20.806Z,10.26
2019-05-15T06:16:20.776Z,10.49
2019-05-15T06:17:20.793Z,10.71
2019-05-15T06:18:20.780Z,10.97
2019-05-15T06:19:20.792Z,11.08
2019-05-15T06:20:20.737Z,11.12
2019-05-15T06:21:20.736Z,11.05
2019-05-15T06:22:20.731Z,11.41
2019-05-15T06:23:24.305Z,11.68
2019-05-15T06:24:20.681Z,12.04
2019-05-15T06:25:20.687Z,12.31
2019-05-15T06:26:20.680Z,12.53
2019-05-15T06:27:20.673Z,12.65
2019-05-15T06:28:20.685Z,12.94
2019-05-15T06:29:20.629Z,13.33
2019-05-15T06:30:26.655Z,13.72
2019-05-15T06:31:21.627Z,14.05
2019-05-15T06:32:20.627Z,14.04
2019-05-15T06:33:20.581Z,14.29
2019-05-15T06:34:20.598Z,14.59
2019-05-15T06:35:20.562Z,15.14
2019-05-15T06:36:20.558Z,15.47
2019-05-15T06:37:20.551Z,15.52
2019-05-15T06:38:20.554Z,15.68
2019-05-15T06:39:20.560Z,15.98
2019-05-15T06:40:20.504Z,16.09
2019-05-15T06:41:20.491Z,16.54
2019-05-15T06:42:20.491Z,16.35
2019-05-15T06:43:20.486Z,16.32
2019-05-15T06:44:20.479Z,16.05
2019-05-15T06:45:20.497Z,16.79
2019-05-15T06:46:20.448Z,18.07
2019-05-15T06:47:20.436Z,18.99
2019-05-15T06:48:20.425Z,18.90
2019-05-15T06:49:20.425Z,19.08
2019-05-15T06:50:20.399Z,19.51
2019-05-15T06:51:20.409Z,19.54
2019-05-15T06:52:20.379Z,19.49
2019-05-15T06:53:20.361Z,18.88
2019-05-15T06:54:20.360Z,17.94
2019-05-15T06:55:20.353Z,17.52
2019-05-15T06:56:20.360Z,17.05
2019-05-15T06:57:20.340Z,16.33
2019-05-15T06:58:20.321Z,15.36
2019-05-15T06:59:20.303Z,14.62
2019-05-15T07:00:20.306Z,14.33
2019-05-15T07:01:20.319Z,14.25
2019-05-15T07:02:20.261Z,14.32
2019-05-15T07:03:25.496Z,14.58
2019-05-15T07:04:21.255Z,14.50
2019-05-15T07:05:20.234Z,14.65
2019-05-15T07:06:20.231Z,14.84
2019-05-15T07:07:20.224Z,14.84
2019-05-15T07:08:20.200Z,14.77
2019-05-15T07:09:20.218Z,14.58
2019-05-15T07:10:20.240Z,14.23
2019-05-15T07:11:20.177Z,14.44
2019-05-15T07:12:20.187Z,14.47
2019-05-15T07:13:20.154Z,14.44
2019-05-15T07:14:20.142Z,14.47
2019-05-15T07:15:20.114Z,14.51
2019-05-15T07:16:20.112Z,14.78
2019-05-15T07:17:20.100Z,15.11
2019-05-15T07:18:20.357Z,15.40
2019-05-15T07:19:20.101Z,15.44
2019-05-15T07:20:20.138Z,15.52
2019-05-15T07:21:20.553Z,15.77
2019-05-15T07:22:20.041Z,15.94
2019-05-15T07:23:20.055Z,15.58
2019-05-15T07:24:20.025Z,15.59
2019-05-15T07:25:20.029Z,15.55
2019-05-15T07:26:19.993Z,15.65
2019-05-15T07:27:19.984Z,16.38
2019-05-15T07:28:20.021Z,19.30
2019-05-15T07:29:19.987Z,21.37
2019-05-15T07:30:21.536Z,22.11
2019-05-15T07:31:19.949Z,21.66
2019-05-15T07:32:19.937Z,20.96
2019-05-15T07:33:34.432Z,20.75
2019-05-15T07:34:20.913Z,21.40
2019-05-15T07:35:19.933Z,21.30
2019-05-15T07:36:19.891Z,21.52
2019-05-15T07:37:19.896Z,21.36
2019-05-15T07:38:19.884Z,20.90
2019-05-15T07:39:19.911Z,21.42
2019-05-15T07:40:19.890Z,21.33
2019-05-15T07:41:19.869Z,20.78
2019-05-15T07:42:19.831Z,20.18
2019-05-15T07:43:19.819Z,20.26
2019-05-15T07:44:19.831Z,20.18
2019-05-15T07:45:19.955Z,20.24
2019-05-15T07:46:19.786Z,20.25
2019-05-15T07:47:19.771Z,20.74
2019-05-15T07:48:19.762Z,21.09
2019-05-15T07:49:19.752Z,21.27
2019-05-15T07:50:19.840Z,21.18
2019-05-15T07:51:19.731Z,20.96
2019-05-15T07:52:19.720Z,20.69
2019-05-15T07:53:20.323Z,20.66
2019-05-15T07:54:19.706Z,21.20
2019-05-15T07:55:19.700Z,21.58
2019-05-15T07:56:19.675Z,20.93
2019-05-15T07:57:19.671Z,20.14
2019-05-15T07:58:21.755Z,20.07
2019-05-15T07:59:19.639Z,20.09
2019-05-15T08:00:19.657Z,19.89
2019-05-15T08:01:19.629Z,19.18
2019-05-15T08:02:19.621Z,18.86
2019-05-15T08:03:19.608Z,18.70
2019-05-15T08:04:28.535Z,18.59
2019-05-15T08:05:20.657Z,18.81
2019-05-15T08:06:19.562Z,18.96
2019-05-15T08:07:19.564Z,19.31
2019-05-15T08:08:19.548Z,19.66
2019-05-15T08:09:19.544Z,19.59
2019-05-15T08:10:19.519Z,19.31
2019-05-15T08:11:24.104Z,19.33
2019-05-15T08:12:20.531Z,19.33
2019-05-15T08:13:19.485Z,19.51
2019-05-15T08:14:19.480Z,19.67
2019-05-15T08:15:19.472Z,20.00
2019-05-15T08:16:19.449Z,19.84
2019-05-15T08:17:21.985Z,20.13
2019-05-15T08:18:19.446Z,20.41
2019-05-15T08:19:19.417Z,20.62
2019-05-15T08:20:19.428Z,20.60
2019-05-15T08:21:19.402Z,20.81
2019-05-15T08:22:19.442Z,20.78
2019-05-15T08:23:19.732Z,21.37
2019-05-15T08:24:19.358Z,21.67
2019-05-15T08:25:31.089Z,21.70
2019-05-15T08:26:20.338Z,21.48
2019-05-15T08:27:19.321Z,21.17
2019-05-15T08:28:19.467Z,21.03
2019-05-15T08:29:21.696Z,21.29
2019-05-15T08:30:19.295Z,22.20
2019-05-15T08:31:19.293Z,23.43
2019-05-15T08:32:19.331Z,24.06
2019-05-15T08:33:19.412Z,24.24
2019-05-15T08:34:19.657Z,24.42
2019-05-15T08:35:19.375Z,23.65
2019-05-15T08:36:19.228Z,23.21
2019-05-15T08:37:19.233Z,22.57
2019-05-15T08:38:19.234Z,22.29
2019-05-15T08:39:19.217Z,21.30
2019-05-15T08:40:19.197Z,21.02
2019-05-15T08:41:19.200Z,21.36
2019-05-15T08:42:19.185Z,21.79
2019-05-15T08:43:19.164Z,23.95
2019-05-15T08:44:19.153Z,26.70
2019-05-15T08:45:19.167Z,28.59
2019-05-15T08:46:19.118Z,30.25
2019-05-15T08:47:19.435Z,31.49
2019-05-15T08:48:19.119Z,31.56
2019-05-15T08:49:20.200Z,31.36
2019-05-15T08:50:19.072Z,31.39
2019-05-15T08:51:19.427Z,31.65
2019-05-15T08:52:19.128Z,32.92
2019-05-15T08:53:19.673Z,32.14
2019-05-15T08:54:19.033Z,29.93
2019-05-15T08:55:20.178Z,28.45
2019-05-15T08:56:19.623Z,27.15
2019-05-15T08:57:20.429Z,26.13
2019-05-15T08:58:20.782Z,25.54
2019-05-15T08:59:18.986Z,25.32
2019-05-15T09:00:18.973Z,25.70
2019-05-15T09:01:18.973Z,24.89
2019-05-15T09:02:19.090Z,23.87
2019-05-15T09:03:18.978Z,23.77
2019-05-15T09:04:27.942Z,24.48
2019-05-15T09:05:19.922Z,25.18
2019-05-15T09:06:22.895Z,25.21
2019-05-15T09:07:18.897Z,25.33
2019-05-15T09:08:19.793Z,26.09
2019-05-15T09:09:18.936Z,26.84
2019-05-15T09:10:18.873Z,27.07
2019-05-15T09:11:19.354Z,27.17
2019-05-15T09:12:19.048Z,27.54
2019-05-15T09:13:19.244Z,27.37
2019-05-15T09:14:18.861Z,27.27
2019-05-15T09:15:18.823Z,27.15
2019-05-15T09:16:18.801Z,27.55
2019-05-15T09:17:18.783Z,27.44
2019-05-15T09:18:20.250Z,26.95
2019-05-15T09:19:18.800Z,27.25
2019-05-15T09:20:19.531Z,27.36
2019-05-15T09:21:19.371Z,27.54
2019-05-15T09:22:18.948Z,26.60
2019-05-15T09:23:19.575Z,24.43
2019-05-15T09:24:19.867Z,23.43
2019-05-15T09:25:19.365Z,23.09
2019-05-15T09:26:19.424Z,23.99
2019-05-15T09:27:21.566Z,24.35
2019-05-15T09:28:19.380Z,23.36
2019-05-15T09:29:18.678Z,22.32
2019-05-15T09:30:18.667Z,22.33
2019-05-15T09:31:19.240Z,23.55
2019-05-15T09:32:19.289Z,24.92
2019-05-15T09:33:19.985Z,26.56
2019-05-15T09:34:18.751Z,27.37
2019-05-15T09:35:18.778Z,27.22
2019-05-15T09:36:20.139Z,26.58
2019-05-15T09:37:18.600Z,25.68
2019-05-15T09:38:18.984Z,24.70
2019-05-15T09:39:18.576Z,24.36
2019-05-15T09:40:18.820Z,23.13
2019-05-15T09:41:18.584Z,22.45
2019-05-15T09:42:18.528Z,22.17
2019-05-15T09:43:18.534Z,21.95
2019-05-15T09:44:21.770Z,21.15
2019-05-15T09:45:18.479Z,20.52
2019-05-15T09:46:18.756Z,20.39
2019-05-15T09:47:18.995Z,20.14
2019-05-15T09:48:19.593Z,20.03
2019-05-15T09:49:18.441Z,19.70
2019-05-15T09:50:19.385Z,19.70
2019-05-15T09:51:18.573Z,19.58
2019-05-15T09:52:22.186Z,19.63
2019-05-15T09:53:19.155Z,19.69
2019-05-15T09:54:19.386Z,19.67
2019-05-15T09:55:18.380Z,19.44
2019-05-15T09:56:18.799Z,19.40
2019-05-15T09:57:18.896Z,19.41
2019-05-15T09:58:20.371Z,19.70
2019-05-15T09:59:18.730Z,20.00
2019-05-15T10:00:18.973Z,20.06
2019-05-15T10:01:19.648Z,20.19
2019-05-15T10:02:18.901Z,19.99
2019-05-15T10:03:18.958Z,19.37
2019-05-15T10:04:18.967Z,19.15
2019-05-15T10:05:18.883Z,19.49
2019-05-15T10:06:20.612Z,19.88
2019-05-15T10:07:19.319Z,20.55
2019-05-15T10:08:20.946Z,20.96
2019-05-15T10:09:18.947Z,20.85
2019-05-15T10:10:19.196Z,20.39
2019-05-15T10:11:19.620Z,20.24
2019-05-15T10:12:18.386Z,20.32
2019-05-15T10:13:18.625Z,20.22
2019-05-15T10:14:19.541Z,20.09
2019-05-15T10:15:18.707Z,19.85
2019-05-15T10:16:19.918Z,19.59
2019-05-15T10:17:18.498Z,19.34
2019-05-15T10:18:19.021Z,19.15
2019-05-15T10:19:18.704Z,19.16
2019-05-15T10:20:18.547Z,18.99
2019-05-15T10:21:18.774Z,18.65
2019-05-15T10:22:18.660Z,18.52
2019-05-15T10:23:19.593Z,18.41
2019-05-15T10:24:18.277Z,18.28
2019-05-15T10:25:19.044Z,18.22
2019-05-15T10:26:19.331Z,18.07
2019-05-15T10:27:18.148Z,18.16
2019-05-15T10:28:18.840Z,17.83
2019-05-15T10:29:17.998Z,17.86
2019-05-15T10:30:18.881Z,17.89
2019-05-15T10:31:19.476Z,17.78
2019-05-15T10:32:19.483Z,17.74
2019-05-15T10:33:19.633Z,17.71
2019-05-15T10:34:18.429Z,17.64
2019-05-15T10:35:25.690Z,17.56
2019-05-15T10:36:19.232Z,17.48
2019-05-15T10:37:18.579Z,17.27
2019-05-15T10:38:19.217Z,17.14
2019-05-15T10:39:18.289Z,17.02
2019-05-15T10:40:20.411Z,16.87
2019-05-15T10:41:18.734Z,16.71
2019-05-15T10:42:19.326Z,16.71
2019-05-15T10:43:20.512Z,16.58
2019-05-15T10:44:18.297Z,16.51
2019-05-15T10:45:19.275Z,16.41
2019-05-15T10:46:19.073Z,16.41
2019-05-15T10:47:17.830Z,16.41
2019-05-15T10:48:18.981Z,16.61
2019-05-15T10:49:18.830Z,16.76
2019-05-15T10:50:19.062Z,16.89
2019-05-15T10:51:19.593Z,16.90
2019-05-15T10:52:18.088Z,16.57
2019-05-15T10:53:18.779Z,16.39
2019-05-15T10:54:19.199Z,16.33
2019-05-15T10:55:18.933Z,16.32
2019-05-15T10:56:18.556Z,16.46
2019-05-15T10:57:18.945Z,16.50
2019-05-15T10:58:21.740Z,16.38
2019-05-15T10:59:18.259Z,16.35
2019-05-15T11:00:19.430Z,16.39
2019-05-15T11:01:19.267Z,16.41
2019-05-15T11:02:19.199Z,16.36
2019-05-15T11:03:19.936Z,16.36
2019-05-15T11:04:18.140Z,16.31
2019-05-15T11:05:18.034Z,16.28
2019-05-15T11:06:18.312Z,16.24
2019-05-15T11:07:19.457Z,16.17
2019-05-15T11:08:18.824Z,16.12
2019-05-15T11:09:18.570Z,16.17
2019-05-15T11:10:18.613Z,16.31
2019-05-15T11:11:18.371Z,16.43
2019-05-15T11:12:18.890Z,16.58
2019-05-15T11:13:18.607Z,16.76
2019-05-15T11:14:18.423Z,16.93
2019-05-15T11:15:18.383Z,17.09
2019-05-15T11:16:20.762Z,17.19
2019-05-15T11:17:17.520Z,16.96
2019-05-15T11:18:17.473Z,16.97
2019-05-15T11:19:17.458Z,16.89
2019-05-15T11:20:18.778Z,17.14
2019-05-15T11:21:19.022Z,17.64
2019-05-15T11:22:18.888Z,18.00
2019-05-15T11:23:20.128Z,18.34
2019-05-15T11:24:19.471Z,18.38
2019-05-15T11:25:17.404Z,18.28
2019-05-15T11:26:19.509Z,18.37
2019-05-15T11:27:19.129Z,18.29
2019-05-15T11:28:17.361Z,18.20
2019-05-15T11:29:17.341Z,18.10
2019-05-15T11:30:19.267Z,17.78
2019-05-15T11:31:17.311Z,17.22
2019-05-15T11:32:17.302Z,16.96
2019-05-15T11:33:18.975Z,16.72
2019-05-15T11:34:18.596Z,15.98
2019-05-15T11:35:18.588Z,15.95
2019-05-15T11:36:18.530Z,16.01
2019-05-15T11:37:18.969Z,16.13
2019-05-15T11:38:19.542Z,16.32
2019-05-15T11:39:18.220Z,16.58
2019-05-15T11:40:18.818Z,16.75
2019-05-15T11:41:19.167Z,16.96
2019-05-15T11:42:17.192Z,17.11
2019-05-15T11:43:19.715Z,17.14
2019-05-15T11:44:18.771Z,17.34
2019-05-15T11:45:18.537Z,17.45
2019-05-15T11:46:18.569Z,17.26
2019-05-15T11:47:18.438Z,17.20
2019-05-15T11:48:20.192Z,17.14
2019-05-15T11:49:18.227Z,17.19
2019-05-15T11:50:20.032Z,17.24
2019-05-15T11:51:18.426Z,17.34
2019-05-15T11:52:18.876Z,17.42
2019-05-15T11:53:19.155Z,17.56
2019-05-15T11:54:19.197Z,17.63
2019-05-15T11:55:17.069Z,17.70
2019-05-15T11:56:18.945Z,17.72
2019-05-15T11:57:19.052Z,17.78
2019-05-15T11:58:18.867Z,18.01
2019-05-15T11:59:18.438Z,18.03
2019-05-15T12:00:26.157Z,17.70
2019-05-15T12:01:19.170Z,17.65
2019-05-15T12:02:18.909Z,17.85
2019-05-15T12:03:18.750Z,17.83
2019-05-15T12:04:29.622Z,17.80
2019-05-15T12:05:18.314Z,17.78
2019-05-15T12:06:22.035Z,18.01
2019-05-15T12:07:18.307Z,18.23
2019-05-15T12:08:18.591Z,18.45
2019-05-15T12:09:18.708Z,18.41
2019-05-15T12:10:18.438Z,18.78
2019-05-15T12:11:31.861Z,18.78
2019-05-15T12:12:18.108Z,18.86
2019-05-15T12:13:18.929Z,19.31
2019-05-15T12:14:19.348Z,19.85
2019-05-15T12:15:19.148Z,20.21
2019-05-15T12:16:16.815Z,20.55
2019-05-15T12:17:18.830Z,21.03
2019-05-15T12:18:16.801Z,21.46
2019-05-15T12:19:17.587Z,21.75
2019-05-15T12:20:19.438Z,22.13
2019-05-15T12:21:19.774Z,22.36
2019-05-15T12:22:16.793Z,22.25
2019-05-15T12:23:16.736Z,22.07
2019-05-15T12:24:16.731Z,22.65
2019-05-15T12:25:16.720Z,23.44
2019-05-15T12:26:16.712Z,23.43
2019-05-15T12:28:17.681Z,21.33
2019-05-15T12:29:16.690Z,21.30
2019-05-15T12:30:19.331Z,21.43
2019-05-15T12:31:16.668Z,21.03
2019-05-15T12:32:28.439Z,20.19
2019-05-15T12:33:18.442Z,19.36
2019-05-15T12:34:18.931Z,18.89
2019-05-15T12:35:20.095Z,19.19
2019-05-15T12:36:40.980Z,19.15
2019-05-15T12:37:19.718Z,19.16
2019-05-15T12:38:18.579Z,19.24
2019-05-15T12:39:21.788Z,19.19
2019-05-15T12:39:23.668Z,22.14
2019-05-15T13:00:18.565Z,16.29
2019-05-15T13:01:18.225Z,16.26
2019-05-15T13:02:18.699Z,15.97
2019-05-15T13:03:18.240Z,15.97
2019-05-15T13:04:16.306Z,15.92
2019-05-15T13:05:19.043Z,15.58
2019-05-15T13:06:19.036Z,15.55
2019-05-15T13:07:19.335Z,15.52
2019-05-15T13:08:16.312Z,15.40
2019-05-15T13:09:16.244Z,15.40
2019-05-15T13:10:18.452Z,15.42
2019-05-15T13:11:18.052Z,15.37
2019-05-15T13:12:18.195Z,15.29
2019-05-15T13:13:16.186Z,15.06
2019-05-15T13:14:18.716Z,14.84
2019-05-15T13:15:18.784Z,14.65
2019-05-15T13:16:18.642Z,14.62
2019-05-15T13:17:18.203Z,14.60
2019-05-15T13:18:18.013Z,14.55
2019-05-15T13:19:18.745Z,14.55
2019-05-15T13:20:18.274Z,14.59
2019-05-15T13:21:20.573Z,14.60
2019-05-15T13:22:18.135Z,14.43
2019-05-15T13:23:17.091Z,14.26
2019-05-15T13:24:16.064Z,14.15